This is the latest recevied weather packets stored in our database for station/object TA1FM. If no packets are shown the sender has not sent any weather packets the latest 10 day(s).
| Time | Temp. | Humidity | Pressure | Rain* | Wind** | Luminosity | Snow |
|---|---|---|---|---|---|---|---|
| 1778057893 | 16.11° C | 50% | 912.5 hPa | - | - | - | - |
| 1778056993 | 16.11° C | 51% | 912.4 hPa | - | - | - | - |
| 1778056092 | 15.56° C | 52% | 912.5 hPa | - | - | - | - |
| 1778055192 | 15° C | 52% | 912.3 hPa | - | - | - | - |
| 1778054292 | 15° C | 53% | 912.3 hPa | - | - | - | - |
| 1778053392 | 7.78° C | 53% | 902.7 hPa | - | - | - | - |
| 1778052492 | 13.89° C | 55% | 912.2 hPa | - | - | - | - |
| 1778051592 | 13.33° C | 56% | 912.1 hPa | - | - | - | - |
| 1778050692 | 3.33° C | 56% | 898.1 hPa | - | - | - | - |
| 1778049791 | 12.22° C | 58% | 912.1 hPa | - | - | - | - |
| 1778048891 | 11.67° C | 58% | 912 hPa | - | - | - | - |
| 1778047991 | 11.67° C | 59% | 912 hPa | - | - | - | - |
| 1778047091 | 11.11° C | 59% | 911.9 hPa | - | - | - | - |
| 1778046191 | 10.56° C | 60% | 911.9 hPa | - | - | - | - |
| 1778045291 | 10° C | 60% | 912 hPa | - | - | - | - |
| 1778044391 | 9.44° C | 61% | 911.9 hPa | - | - | - | - |
| 1778043490 | 9.44° C | 60% | 911.8 hPa | - | - | - | - |
| 1778042590 | 8.89° C | 60% | 911.8 hPa | - | - | - | - |
| 1778041690 | 8.89° C | 60% | 911.7 hPa | - | - | - | - |
| 1778040790 | 8.33° C | 60% | 911.6 hPa | - | - | - | - |
| 1778039890 | 8.33° C | 60% | 911.5 hPa | - | - | - | - |
| 1778038990 | 7.78° C | 60% | 911.5 hPa | - | - | - | - |
| 1778038089 | 7.78° C | 60% | 911.4 hPa | - | - | - | - |
| 1778037189 | 7.22° C | 60% | 911.3 hPa | - | - | - | - |
| 1778036289 | 6.67° C | 62% | 911.3 hPa | - | - | - | - |
* Rain since midnight (hover to see other rain measurements)
** Current wind speed in m/s (hover to see current wind gust speed)